sensor_id;sensor_type;location;lat;lon;timestamp;pressure;altitude;pressure_sealevel;temperature;humidity
18795;BME280;29610;49.022;12.114;2023-08-31T00:00:46;97114.97;;;15.47;100.00
18795;BME280;29610;49.022;12.114;2023-08-31T00:03:35;97118.06;;;15.45;100.00
18795;BME280;29610;49.022;12.114;2023-08-31T00:06:25;97128.19;;;15.41;100.00
18795;BME280;29610;49.022;12.114;2023-08-31T00:09:14;97129.31;;;15.40;100.00
18795;BME280;29610;49.022;12.114;2023-08-31T00:12:03;97127.38;;;15.63;100.00
18795;BME280;29610;49.022;12.114;2023-08-31T00:14:52;97138.78;;;15.69;100.00
18795;BME280;29610;49.022;12.114;2023-08-31T00:17:41;97138.28;;;15.86;100.00
18795;BME280;29610;49.022;12.114;2023-08-31T00:20:30;97134.03;;;15.88;100.00
18795;BME280;29610;49.022;12.114;2023-08-31T00:23:22;97138.38;;;15.93;100.00
18795;BME280;29610;49.022;12.114;2023-08-31T00:26:10;97131.75;;;15.94;100.00
18795;BME280;29610;49.022;12.114;2023-08-31T00:29:00;97116.00;;;15.87;100.00
18795;BME280;29610;49.022;12.114;2023-08-31T00:31:49;97108.28;;;15.70;100.00
18795;BME280;29610;49.022;12.114;2023-08-31T00:34:38;97103.84;;;15.62;100.00
18795;BME280;29610;49.022;12.114;2023-08-31T00:37:27;97099.97;;;15.63;100.00
18795;BME280;29610;49.022;12.114;2023-08-31T00:40:17;97091.66;;;15.56;100.00
18795;BME280;29610;49.022;12.114;2023-08-31T00:43:06;97092.59;;;15.41;100.00
18795;BME280;29610;49.022;12.114;2023-08-31T00:45:56;97094.16;;;15.42;100.00
18795;BME280;29610;49.022;12.114;2023-08-31T00:48:46;97101.81;;;15.33;100.00
18795;BME280;29610;49.022;12.114;2023-08-31T00:51:36;97095.03;;;15.27;100.00
18795;BME280;29610;49.022;12.114;2023-08-31T00:54:25;97099.75;;;15.27;100.00
18795;BME280;29610;49.022;12.114;2023-08-31T00:57:16;97097.78;;;15.27;100.00
18795;BME280;29610;49.022;12.114;2023-08-31T01:00:06;97106.63;;;15.40;100.00
18795;BME280;29610;49.022;12.114;2023-08-31T01:03:06;97102.44;;;15.46;100.00
18795;BME280;29610;49.022;12.114;2023-08-31T01:06:07;97112.47;;;15.38;100.00
18795;BME280;29610;49.022;12.114;2023-08-31T01:09:06;97108.06;;;15.34;100.00
18795;BME280;29610;49.022;12.114;2023-08-31T01:12:03;97112.81;;;15.37;100.00
18795;BME280;29610;49.022;12.114;2023-08-31T01:14:57;97111.22;;;15.36;100.00
18795;BME280;29610;49.022;12.114;2023-08-31T01:17:54;97124.91;;;15.36;100.00
18795;BME280;29610;49.022;12.114;2023-08-31T01:20:52;97126.84;;;15.35;100.00
18795;BME280;29610;49.022;12.114;2023-08-31T01:23:52;97139.03;;;15.38;100.00
18795;BME280;29610;49.022;12.114;2023-08-31T01:26:42;97138.06;;;15.27;100.00
18795;BME280;29610;49.022;12.114;2023-08-31T01:29:31;97142.56;;;15.38;100.00
18795;BME280;29610;49.022;12.114;2023-08-31T01:32:20;97140.41;;;15.47;100.00
18795;BME280;29610;49.022;12.114;2023-08-31T01:35:09;97144.53;;;15.38;100.00
18795;BME280;29610;49.022;12.114;2023-08-31T01:38:01;97148.84;;;15.39;100.00
18795;BME280;29610;49.022;12.114;2023-08-31T01:40:58;97138.25;;;15.37;100.00
18795;BME280;29610;49.022;12.114;2023-08-31T01:43:51;97142.88;;;15.56;100.00
18795;BME280;29610;49.022;12.114;2023-08-31T01:46:41;97144.25;;;15.43;100.00
18795;BME280;29610;49.022;12.114;2023-08-31T01:49:36;97150.19;;;15.48;100.00
18795;BME280;29610;49.022;12.114;2023-08-31T01:52:25;97143.31;;;15.58;100.00
18795;BME280;29610;49.022;12.114;2023-08-31T01:55:13;97153.75;;;15.75;100.00
18795;BME280;29610;49.022;12.114;2023-08-31T01:58:04;97159.56;;;15.70;100.00
18795;BME280;29610;49.022;12.114;2023-08-31T02:00:53;97149.16;;;15.56;100.00
18795;BME280;29610;49.022;12.114;2023-08-31T02:03:43;97156.63;;;15.59;100.00
18795;BME280;29610;49.022;12.114;2023-08-31T02:06:31;97154.75;;;15.63;100.00
18795;BME280;29610;49.022;12.114;2023-08-31T02:09:20;97153.16;;;15.62;100.00
18795;BME280;29610;49.022;12.114;2023-08-31T02:12:10;97166.78;;;15.59;100.00
18795;BME280;29610;49.022;12.114;2023-08-31T02:15:00;97159.44;;;15.63;100.00
18795;BME280;29610;49.022;12.114;2023-08-31T02:17:48;97159.00;;;15.61;100.00
18795;BME280;29610;49.022;12.114;2023-08-31T02:20:37;97154.69;;;15.60;100.00
18795;BME280;29610;49.022;12.114;2023-08-31T02:23:26;97155.72;;;15.52;100.00
18795;BME280;29610;49.022;12.114;2023-08-31T02:26:14;97147.16;;;15.53;100.00
18795;BME280;29610;49.022;12.114;2023-08-31T02:29:05;97147.94;;;15.54;100.00
18795;BME280;29610;49.022;12.114;2023-08-31T02:31:56;97154.97;;;15.32;100.00
18795;BME280;29610;49.022;12.114;2023-08-31T02:34:44;97155.25;;;15.27;100.00
18795;BME280;29610;49.022;12.114;2023-08-31T02:37:33;97149.84;;;15.31;100.00
18795;BME280;29610;49.022;12.114;2023-08-31T02:40:21;97157.41;;;15.37;100.00
18795;BME280;29610;49.022;12.114;2023-08-31T02:43:10;97159.88;;;15.42;100.00
18795;BME280;29610;49.022;12.114;2023-08-31T02:46:00;97157.13;;;15.42;100.00
18795;BME280;29610;49.022;12.114;2023-08-31T02:48:50;97153.84;;;15.33;100.00
18795;BME280;29610;49.022;12.114;2023-08-31T02:51:39;97154.97;;;15.32;100.00
18795;BME280;29610;49.022;12.114;2023-08-31T02:54:28;97156.88;;;15.28;100.00
18795;BME280;29610;49.022;12.114;2023-08-31T02:57:16;97158.22;;;15.38;100.00
18795;BME280;29610;49.022;12.114;2023-08-31T03:00:08;97143.59;;;15.30;100.00
18795;BME280;29610;49.022;12.114;2023-08-31T03:03:00;97137.19;;;15.23;100.00
18795;BME280;29610;49.022;12.114;2023-08-31T03:05:55;97137.41;;;15.33;100.00
18795;BME280;29610;49.022;12.114;2023-08-31T03:08:44;97135.38;;;15.30;100.00
18795;BME280;29610;49.022;12.114;2023-08-31T03:11:33;97158.44;;;15.29;100.00
18795;BME280;29610;49.022;12.114;2023-08-31T03:14:22;97171.47;;;15.36;100.00
18795;BME280;29610;49.022;12.114;2023-08-31T03:17:11;97175.06;;;15.40;100.00
18795;BME280;29610;49.022;12.114;2023-08-31T03:20:00;97175.16;;;15.24;100.00
18795;BME280;29610;49.022;12.114;2023-08-31T03:22:52;97178.75;;;15.28;100.00
18795;BME280;29610;49.022;12.114;2023-08-31T03:25:41;97174.13;;;15.32;100.00
18795;BME280;29610;49.022;12.114;2023-08-31T03:28:30;97188.84;;;15.24;100.00
18795;BME280;29610;49.022;12.114;2023-08-31T03:31:18;97185.19;;;15.17;100.00
18795;BME280;29610;49.022;12.114;2023-08-31T03:34:07;97194.19;;;15.17;100.00
18795;BME280;29610;49.022;12.114;2023-08-31T03:36:56;97200.66;;;15.28;100.00
18795;BME280;29610;49.022;12.114;2023-08-31T03:39:47;97195.41;;;15.20;100.00
18795;BME280;29610;49.022;12.114;2023-08-31T03:42:36;97190.38;;;15.22;100.00
18795;BME280;29610;49.022;12.114;2023-08-31T03:45:25;97200.00;;;15.35;100.00
18795;BME280;29610;49.022;12.114;2023-08-31T03:48:14;97195.84;;;15.22;100.00
18795;BME280;29610;49.022;12.114;2023-08-31T03:51:03;97197.34;;;15.19;100.00
18795;BME280;29610;49.022;12.114;2023-08-31T03:53:51;97204.38;;;14.98;100.00
18795;BME280;29610;49.022;12.114;2023-08-31T03:56:44;97205.16;;;14.98;100.00
18795;BME280;29610;49.022;12.114;2023-08-31T03:59:33;97209.63;;;14.87;100.00
18795;BME280;29610;49.022;12.114;2023-08-31T04:02:21;97207.56;;;14.81;100.00
18795;BME280;29610;49.022;12.114;2023-08-31T04:05:11;97213.88;;;14.65;100.00
18795;BME280;29610;49.022;12.114;2023-08-31T04:08:04;97223.59;;;14.63;100.00
18795;BME280;29610;49.022;12.114;2023-08-31T04:10:55;97216.97;;;14.64;100.00
18795;BME280;29610;49.022;12.114;2023-08-31T04:13:45;97220.53;;;14.68;100.00
18795;BME280;29610;49.022;12.114;2023-08-31T04:16:34;97215.78;;;14.65;100.00
18795;BME280;29610;49.022;12.114;2023-08-31T04:19:22;97218.44;;;14.61;100.00
18795;BME280;29610;49.022;12.114;2023-08-31T04:22:11;97231.06;;;14.66;100.00
18795;BME280;29610;49.022;12.114;2023-08-31T04:24:59;97240.31;;;14.61;100.00
18795;BME280;29610;49.022;12.114;2023-08-31T04:27:49;97245.53;;;14.66;100.00
18795;BME280;29610;49.022;12.114;2023-08-31T04:30:40;97258.06;;;14.68;100.00
18795;BME280;29610;49.022;12.114;2023-08-31T04:33:29;97250.16;;;14.82;100.00
18795;BME280;29610;49.022;12.114;2023-08-31T04:36:18;97271.88;;;14.94;100.00
18795;BME280;29610;49.022;12.114;2023-08-31T04:39:06;97266.56;;;15.01;100.00
18795;BME280;29610;49.022;12.114;2023-08-31T04:41:55;97272.13;;;15.04;100.00
18795;BME280;29610;49.022;12.114;2023-08-31T04:44:44;97267.50;;;15.08;100.00
18795;BME280;29610;49.022;12.114;2023-08-31T04:47:33;97269.59;;;14.96;100.00
18795;BME280;29610;49.022;12.114;2023-08-31T04:50:22;97272.94;;;14.70;100.00
18795;BME280;29610;49.022;12.114;2023-08-31T04:53:11;97275.09;;;14.61;100.00
18795;BME280;29610;49.022;12.114;2023-08-31T04:56:00;97275.28;;;14.52;100.00
18795;BME280;29610;49.022;12.114;2023-08-31T04:58:48;97281.06;;;14.32;100.00
18795;BME280;29610;49.022;12.114;2023-08-31T05:01:37;97279.13;;;14.32;100.00
18795;BME280;29610;49.022;12.114;2023-08-31T05:04:27;97282.00;;;14.24;100.00
18795;BME280;29610;49.022;12.114;2023-08-31T05:07:16;97285.72;;;14.16;100.00
18795;BME280;29610;49.022;12.114;2023-08-31T05:10:07;97284.88;;;14.27;100.00
18795;BME280;29610;49.022;12.114;2023-08-31T05:12:56;97292.69;;;14.44;100.00
18795;BME280;29610;49.022;12.114;2023-08-31T05:15:45;97294.28;;;14.45;100.00
18795;BME280;29610;49.022;12.114;2023-08-31T05:18:34;97298.94;;;14.45;100.00
18795;BME280;29610;49.022;12.114;2023-08-31T05:21:24;97305.56;;;14.44;100.00
18795;BME280;29610;49.022;12.114;2023-08-31T05:24:13;97318.72;;;14.38;100.00
18795;BME280;29610;49.022;12.114;2023-08-31T05:27:01;97321.06;;;14.55;100.00
18795;BME280;29610;49.022;12.114;2023-08-31T05:29:50;97315.59;;;14.71;100.00
18795;BME280;29610;49.022;12.114;2023-08-31T05:32:39;97312.06;;;14.90;100.00
18795;BME280;29610;49.022;12.114;2023-08-31T05:35:27;97330.38;;;15.05;100.00
18795;BME280;29610;49.022;12.114;2023-08-31T05:38:18;97322.88;;;15.21;100.00
18795;BME280;29610;49.022;12.114;2023-08-31T05:41:07;97336.53;;;15.36;100.00
18795;BME280;29610;49.022;12.114;2023-08-31T05:43:56;97338.22;;;15.41;100.00
18795;BME280;29610;49.022;12.114;2023-08-31T05:46:45;97331.84;;;15.56;100.00
18795;BME280;29610;49.022;12.114;2023-08-31T05:49:34;97335.91;;;15.62;100.00
18795;BME280;29610;49.022;12.114;2023-08-31T05:52:22;97348.16;;;15.68;100.00
18795;BME280;29610;49.022;12.114;2023-08-31T05:55:13;97354.69;;;15.82;100.00
18795;BME280;29610;49.022;12.114;2023-08-31T05:58:01;97352.09;;;16.12;100.00
18795;BME280;29610;49.022;12.114;2023-08-31T06:00:50;97348.00;;;16.25;100.00
18795;BME280;29610;49.022;12.114;2023-08-31T06:03:38;97349.13;;;16.21;100.00
18795;BME280;29610;49.022;12.114;2023-08-31T06:06:27;97352.16;;;16.16;100.00
18795;BME280;29610;49.022;12.114;2023-08-31T06:09:16;97347.41;;;16.13;100.00
18795;BME280;29610;49.022;12.114;2023-08-31T06:12:07;97344.38;;;16.18;100.00
18795;BME280;29610;49.022;12.114;2023-08-31T06:14:55;97335.03;;;16.22;100.00
18795;BME280;29610;49.022;12.114;2023-08-31T06:17:44;97345.63;;;16.24;100.00
18795;BME280;29610;49.022;12.114;2023-08-31T06:20:32;97356.34;;;16.09;100.00
18795;BME280;29610;49.022;12.114;2023-08-31T06:23:21;97366.91;;;16.30;100.00
18795;BME280;29610;49.022;12.114;2023-08-31T06:26:10;97370.78;;;16.48;100.00
18795;BME280;29610;49.022;12.114;2023-08-31T06:28:59;97377.88;;;16.75;100.00
18795;BME280;29610;49.022;12.114;2023-08-31T06:31:48;97381.78;;;17.00;100.00
18795;BME280;29610;49.022;12.114;2023-08-31T06:34:37;97375.50;;;17.00;100.00
18795;BME280;29610;49.022;12.114;2023-08-31T06:37:25;97383.25;;;16.94;100.00
18795;BME280;29610;49.022;12.114;2023-08-31T06:40:14;97389.75;;;16.83;100.00
18795;BME280;29610;49.022;12.114;2023-08-31T06:43:03;97390.38;;;16.99;100.00
18795;BME280;29610;49.022;12.114;2023-08-31T06:45:53;97394.28;;;16.98;100.00
18795;BME280;29610;49.022;12.114;2023-08-31T06:48:48;97398.56;;;17.21;100.00
18795;BME280;29610;49.022;12.114;2023-08-31T06:51:37;97398.38;;;17.37;100.00
18795;BME280;29610;49.022;12.114;2023-08-31T06:54:25;97393.41;;;17.46;100.00
18795;BME280;29610;49.022;12.114;2023-08-31T06:57:14;97401.19;;;17.70;100.00
18795;BME280;29610;49.022;12.114;2023-08-31T07:00:04;97396.59;;;17.81;100.00
18795;BME280;29610;49.022;12.114;2023-08-31T07:02:56;97396.16;;;17.76;100.00
18795;BME280;29610;49.022;12.114;2023-08-31T07:05:45;97389.38;;;17.66;100.00
18795;BME280;29610;49.022;12.114;2023-08-31T07:08:34;97401.00;;;17.56;100.00
18795;BME280;29610;49.022;12.114;2023-08-31T07:11:24;97397.63;;;17.40;100.00
18795;BME280;29610;49.022;12.114;2023-08-31T07:14:14;97401.75;;;17.27;100.00
18795;BME280;29610;49.022;12.114;2023-08-31T07:17:03;97396.88;;;17.43;100.00
18795;BME280;29610;49.022;12.114;2023-08-31T07:19:53;97396.53;;;17.44;100.00
18795;BME280;29610;49.022;12.114;2023-08-31T07:22:42;97390.63;;;17.72;100.00
18795;BME280;29610;49.022;12.114;2023-08-31T07:25:30;97398.31;;;17.93;100.00
18795;BME280;29610;49.022;12.114;2023-08-31T07:28:19;97389.97;;;17.82;100.00
18795;BME280;29610;49.022;12.114;2023-08-31T07:31:07;97378.31;;;17.96;100.00
18795;BME280;29610;49.022;12.114;2023-08-31T07:33:56;97385.06;;;18.02;100.00
18795;BME280;29610;49.022;12.114;2023-08-31T07:36:46;97401.31;;;18.50;100.00
18795;BME280;29610;49.022;12.114;2023-08-31T07:39:35;97415.94;;;18.61;100.00
18795;BME280;29610;49.022;12.114;2023-08-31T07:42:24;97412.72;;;18.52;100.00
18795;BME280;29610;49.022;12.114;2023-08-31T07:45:12;97424.59;;;18.23;100.00
18795;BME280;29610;49.022;12.114;2023-08-31T07:48:01;97424.25;;;18.32;100.00
18795;BME280;29610;49.022;12.114;2023-08-31T07:50:50;97423.63;;;18.42;100.00
18795;BME280;29610;49.022;12.114;2023-08-31T07:53:40;97434.53;;;18.35;100.00
18795;BME280;29610;49.022;12.114;2023-08-31T07:56:29;97437.69;;;18.37;100.00
18795;BME280;29610;49.022;12.114;2023-08-31T07:59:18;97445.94;;;18.37;100.00
18795;BME280;29610;49.022;12.114;2023-08-31T08:02:06;97444.53;;;18.50;100.00
18795;BME280;29610;49.022;12.114;2023-08-31T08:04:55;97445.94;;;18.37;100.00
18795;BME280;29610;49.022;12.114;2023-08-31T08:07:43;97444.25;;;18.62;100.00
18795;BME280;29610;49.022;12.114;2023-08-31T08:10:33;97436.59;;;18.85;100.00
18795;BME280;29610;49.022;12.114;2023-08-31T08:13:22;97445.38;;;19.01;100.00
18795;BME280;29610;49.022;12.114;2023-08-31T08:16:10;97446.00;;;19.31;100.00
18795;BME280;29610;49.022;12.114;2023-08-31T08:18:59;97459.72;;;19.24;100.00
18795;BME280;29610;49.022;12.114;2023-08-31T08:21:48;97453.13;;;19.32;100.00
18795;BME280;29610;49.022;12.114;2023-08-31T08:24:36;97465.59;;;19.19;100.00
18795;BME280;29610;49.022;12.114;2023-08-31T08:27:28;97458.66;;;18.88;100.00
18795;BME280;29610;49.022;12.114;2023-08-31T08:30:19;97467.97;;;19.21;100.00
18795;BME280;29610;49.022;12.114;2023-08-31T08:33:08;97461.47;;;19.46;100.00
18795;BME280;29610;49.022;12.114;2023-08-31T08:35:58;97448.63;;;19.75;100.00
18795;BME280;29610;49.022;12.114;2023-08-31T08:38:47;97452.25;;;19.89;100.00
18795;BME280;29610;49.022;12.114;2023-08-31T08:41:37;97447.59;;;20.04;100.00
18795;BME280;29610;49.022;12.114;2023-08-31T08:44:32;97452.41;;;20.24;100.00
18795;BME280;29610;49.022;12.114;2023-08-31T08:47:21;97445.03;;;20.74;100.00
18795;BME280;29610;49.022;12.114;2023-08-31T08:50:11;97441.50;;;21.26;100.00
18795;BME280;29610;49.022;12.114;2023-08-31T08:53:00;97444.66;;;21.04;100.00
18795;BME280;29610;49.022;12.114;2023-08-31T08:55:49;97446.59;;;20.65;100.00
18795;BME280;29610;49.022;12.114;2023-08-31T08:58:42;97458.41;;;20.65;100.00
18795;BME280;29610;49.022;12.114;2023-08-31T09:01:34;97450.94;;;20.69;100.00
18795;BME280;29610;49.022;12.114;2023-08-31T09:04:23;97453.69;;;20.83;100.00
18795;BME280;29610;49.022;12.114;2023-08-31T09:07:12;97465.13;;;20.71;100.00
18795;BME280;29610;49.022;12.114;2023-08-31T09:10:00;97460.00;;;20.91;100.00
18795;BME280;29610;49.022;12.114;2023-08-31T09:12:49;97465.56;;;21.12;100.00
18795;BME280;29610;49.022;12.114;2023-08-31T09:15:44;97471.50;;;21.14;100.00
18795;BME280;29610;49.022;12.114;2023-08-31T09:18:35;97473.81;;;20.91;100.00
18795;BME280;29610;49.022;12.114;2023-08-31T09:21:35;97472.69;;;21.06;100.00
18795;BME280;29610;49.022;12.114;2023-08-31T09:24:24;97471.50;;;21.28;100.00
18795;BME280;29610;49.022;12.114;2023-08-31T09:27:13;97477.81;;;21.14;100.00
18795;BME280;29610;49.022;12.114;2023-08-31T09:30:02;97479.75;;;21.38;100.00
18795;BME280;29610;49.022;12.114;2023-08-31T09:32:54;97482.84;;;21.90;100.00
18795;BME280;29610;49.022;12.114;2023-08-31T09:35:50;97484.47;;;21.80;100.00
18795;BME280;29610;49.022;12.114;2023-08-31T09:38:42;97486.44;;;21.65;100.00
18795;BME280;29610;49.022;12.114;2023-08-31T09:41:31;97478.81;;;22.15;100.00
18795;BME280;29610;49.022;12.114;2023-08-31T09:44:22;97492.41;;;22.68;100.00
18795;BME280;29610;49.022;12.114;2023-08-31T09:47:13;97491.88;;;22.87;100.00
18795;BME280;29610;49.022;12.114;2023-08-31T09:50:02;97491.06;;;22.93;100.00
18795;BME280;29610;49.022;12.114;2023-08-31T09:52:55;97483.78;;;22.52;99.44
18795;BME280;29610;49.022;12.114;2023-08-31T09:55:47;97484.56;;;22.49;100.00
18795;BME280;29610;49.022;12.114;2023-08-31T09:58:36;97487.59;;;22.79;100.00
18795;BME280;29610;49.022;12.114;2023-08-31T10:01:25;97494.78;;;22.69;100.00
18795;BME280;29610;49.022;12.114;2023-08-31T10:04:17;97491.81;;;22.29;100.00
18795;BME280;29610;49.022;12.114;2023-08-31T10:07:08;97488.31;;;22.14;100.00
18795;BME280;29610;49.022;12.114;2023-08-31T10:10:00;97495.13;;;21.82;100.00
18795;BME280;29610;49.022;12.114;2023-08-31T10:12:50;97484.47;;;21.80;100.00
18795;BME280;29610;49.022;12.114;2023-08-31T10:15:39;97484.88;;;21.71;100.00
18795;BME280;29610;49.022;12.114;2023-08-31T10:18:30;97497.91;;;21.64;100.00
18795;BME280;29610;49.022;12.114;2023-08-31T10:21:19;97488.44;;;21.61;100.00
18795;BME280;29610;49.022;12.114;2023-08-31T10:24:08;97490.75;;;21.88;100.00
18795;BME280;29610;49.022;12.114;2023-08-31T10:27:17;97492.75;;;21.62;100.00
18795;BME280;29610;49.022;12.114;2023-08-31T10:30:25;97488.84;;;21.35;100.00
18795;BME280;29610;49.022;12.114;2023-08-31T10:33:21;97486.88;;;21.01;100.00
18795;BME280;29610;49.022;12.114;2023-08-31T10:36:14;97490.03;;;21.10;100.00
18795;BME280;29610;49.022;12.114;2023-08-31T10:39:07;97485.69;;;21.33;100.00
18795;BME280;29610;49.022;12.114;2023-08-31T10:42:00;97488.44;;;21.51;100.00
18795;BME280;29610;49.022;12.114;2023-08-31T10:44:50;97492.38;;;21.67;100.00
18795;BME280;29610;49.022;12.114;2023-08-31T10:47:40;97489.59;;;21.71;100.00
18795;BME280;29610;49.022;12.114;2023-08-31T10:50:41;97484.34;;;22.19;100.00
18795;BME280;29610;49.022;12.114;2023-08-31T10:53:36;97485.22;;;22.81;100.00
18795;BME280;29610;49.022;12.114;2023-08-31T10:56:29;97471.22;;;22.98;100.00
18795;BME280;29610;49.022;12.114;2023-08-31T10:59:20;97482.88;;;22.76;100.00
18795;BME280;29610;49.022;12.114;2023-08-31T11:02:36;97477.84;;;22.53;100.00
18795;BME280;29610;49.022;12.114;2023-08-31T11:05:28;97486.13;;;22.50;100.00
18795;BME280;29610;49.022;12.114;2023-08-31T11:08:21;97491.03;;;22.21;100.00
18795;BME280;29610;49.022;12.114;2023-08-31T11:11:19;97487.03;;;22.36;100.00
18795;BME280;29610;49.022;12.114;2023-08-31T11:14:09;97489.06;;;22.25;100.00
18795;BME280;29610;49.022;12.114;2023-08-31T11:16:59;97477.56;;;22.34;100.00
18795;BME280;29610;49.022;12.114;2023-08-31T11:19:49;97487.84;;;22.26;100.00
18795;BME280;29610;49.022;12.114;2023-08-31T11:22:42;97486.13;;;22.50;100.00
18795;BME280;29610;49.022;12.114;2023-08-31T11:25:31;97475.88;;;22.54;100.00
18795;BME280;29610;49.022;12.114;2023-08-31T11:28:20;97483.81;;;22.45;100.00
18795;BME280;29610;49.022;12.114;2023-08-31T11:31:08;97483.19;;;22.85;100.00
18795;BME280;29610;49.022;12.114;2023-08-31T11:33:58;97483.28;;;23.29;100.00
18795;BME280;29610;49.022;12.114;2023-08-31T11:36:47;97481.94;;;23.44;100.00
18795;BME280;29610;49.022;12.114;2023-08-31T11:39:37;97480.66;;;23.93;96.16
18795;BME280;29610;49.022;12.114;2023-08-31T11:42:33;97469.94;;;23.95;97.02
18795;BME280;29610;49.022;12.114;2023-08-31T11:45:26;97473.41;;;24.06;92.79
18795;BME280;29610;49.022;12.114;2023-08-31T11:48:16;97478.75;;;24.84;100.00
18795;BME280;29610;49.022;12.114;2023-08-31T11:51:06;97473.28;;;25.72;93.62
18795;BME280;29610;49.022;12.114;2023-08-31T11:53:56;97471.09;;;26.26;89.82
18795;BME280;29610;49.022;12.114;2023-08-31T11:56:47;97465.41;;;26.69;85.71
18795;BME280;29610;49.022;12.114;2023-08-31T11:59:38;97466.44;;;27.27;88.23
18795;BME280;29610;49.022;12.114;2023-08-31T12:02:27;97461.72;;;27.23;75.65
18795;BME280;29610;49.022;12.114;2023-08-31T12:05:15;97469.66;;;27.25;78.63
18795;BME280;29610;49.022;12.114;2023-08-31T12:08:06;97470.34;;;26.42;84.96
18795;BME280;29610;49.022;12.114;2023-08-31T12:10:55;97472.59;;;24.96;75.76
18795;BME280;29610;49.022;12.114;2023-08-31T12:13:44;97474.81;;;24.51;79.64
18795;BME280;29610;49.022;12.114;2023-08-31T12:16:34;97479.31;;;23.71;80.66
18795;BME280;29610;49.022;12.114;2023-08-31T12:19:27;97481.38;;;23.15;82.78
18795;BME280;29610;49.022;12.114;2023-08-31T12:22:16;97478.59;;;23.63;78.22
18795;BME280;29610;49.022;12.114;2023-08-31T12:25:07;97484.38;;;24.16;86.85
18795;BME280;29610;49.022;12.114;2023-08-31T12:27:55;97472.34;;;23.93;73.25
18795;BME280;29610;49.022;12.114;2023-08-31T12:30:48;97476.63;;;24.01;70.33
18795;BME280;29610;49.022;12.114;2023-08-31T12:33:37;97483.84;;;24.59;69.39
18795;BME280;29610;49.022;12.114;2023-08-31T12:36:26;97477.81;;;25.43;71.93
18795;BME280;29610;49.022;12.114;2023-08-31T12:39:15;97464.22;;;26.11;67.30
18795;BME280;29610;49.022;12.114;2023-08-31T12:42:05;97463.88;;;26.29;67.80
18795;BME280;29610;49.022;12.114;2023-08-31T12:45:10;97470.19;;;26.68;67.69
18795;BME280;29610;49.022;12.114;2023-08-31T12:47:59;97468.22;;;26.85;62.51
18795;BME280;29610;49.022;12.114;2023-08-31T12:50:47;97460.66;;;27.01;62.38
18795;BME280;29610;49.022;12.114;2023-08-31T12:53:38;97464.97;;;26.51;63.31
18795;BME280;29610;49.022;12.114;2023-08-31T12:56:29;97449.31;;;27.08;57.71
18795;BME280;29610;49.022;12.114;2023-08-31T12:59:19;97462.81;;;26.78;58.76
18795;BME280;29610;49.022;12.114;2023-08-31T13:02:07;97460.84;;;26.94;54.55
18795;BME280;29610;49.022;12.114;2023-08-31T13:04:58;97465.25;;;26.92;47.63
18795;BME280;29610;49.022;12.114;2023-08-31T13:07:46;97462.56;;;26.88;47.84
18795;BME280;29610;49.022;12.114;2023-08-31T13:10:35;97463.88;;;27.00;45.20
18795;BME280;29610;49.022;12.114;2023-08-31T13:13:24;97465.47;;;26.46;46.43
18795;BME280;29610;49.022;12.114;2023-08-31T13:16:14;97466.66;;;26.09;45.86
18795;BME280;29610;49.022;12.114;2023-08-31T13:19:03;97464.28;;;26.08;45.08
18795;BME280;29610;49.022;12.114;2023-08-31T13:21:52;97471.03;;;25.87;51.99
18795;BME280;29610;49.022;12.114;2023-08-31T13:24:40;97468.91;;;25.52;52.08
18795;BME280;29610;49.022;12.114;2023-08-31T13:27:29;97466.88;;;25.56;52.44
18795;BME280;29610;49.022;12.114;2023-08-31T13:30:17;97471.53;;;25.13;55.03
18795;BME280;29610;49.022;12.114;2023-08-31T13:33:08;97473.84;;;24.91;52.50
18795;BME280;29610;49.022;12.114;2023-08-31T13:35:57;97478.53;;;24.41;57.44
18795;BME280;29610;49.022;12.114;2023-08-31T13:38:46;97477.38;;;24.05;55.10
18795;BME280;29610;49.022;12.114;2023-08-31T13:41:34;97483.22;;;23.77;57.64
18795;BME280;29610;49.022;12.114;2023-08-31T13:44:23;97476.56;;;23.71;60.47
18795;BME280;29610;49.022;12.114;2023-08-31T13:47:12;97468.94;;;24.15;55.91
18795;BME280;29610;49.022;12.114;2023-08-31T13:50:02;97488.28;;;24.52;57.54
18795;BME280;29610;49.022;12.114;2023-08-31T13:52:51;97489.06;;;25.36;50.78
18795;BME280;29610;49.022;12.114;2023-08-31T13:55:40;97489.66;;;25.47;53.38
18795;BME280;29610;49.022;12.114;2023-08-31T13:58:29;97489.97;;;25.03;50.34
18795;BME280;29610;49.022;12.114;2023-08-31T14:01:17;97490.78;;;24.74;55.42
18795;BME280;29610;49.022;12.114;2023-08-31T14:04:06;97487.66;;;24.72;52.82
18795;BME280;29610;49.022;12.114;2023-08-31T14:06:56;97494.59;;;24.57;53.80
18795;BME280;29610;49.022;12.114;2023-08-31T14:09:45;97484.63;;;24.59;52.63
18795;BME280;29610;49.022;12.114;2023-08-31T14:12:34;97483.66;;;24.12;56.82
18795;BME280;29610;49.022;12.114;2023-08-31T14:15:22;97478.69;;;23.93;59.05
18795;BME280;29610;49.022;12.114;2023-08-31T14:18:11;97475.91;;;24.27;55.92
18795;BME280;29610;49.022;12.114;2023-08-31T14:21:00;97477.19;;;23.85;54.64
18795;BME280;29610;49.022;12.114;2023-08-31T14:23:51;97476.03;;;23.79;54.78
18795;BME280;29610;49.022;12.114;2023-08-31T14:26:44;97473.81;;;23.67;53.90
18795;BME280;29610;49.022;12.114;2023-08-31T14:29:33;97477.50;;;23.54;57.07
18795;BME280;29610;49.022;12.114;2023-08-31T14:32:22;97472.81;;;23.47;55.69
18795;BME280;29610;49.022;12.114;2023-08-31T14:35:10;97465.06;;;23.28;59.56
18795;BME280;29610;49.022;12.114;2023-08-31T14:37:59;97471.94;;;23.06;57.19
18795;BME280;29610;49.022;12.114;2023-08-31T14:40:49;97480.47;;;22.81;60.45